Painton, Missouri
Current Conditions -  °F | °C
As of 2:53 PM on Thursday 27 Nov 2014 (Local Time) from KCGI Reporting Station
Scattered Clouds Scattered Clouds  
Wind Chill: 33°   Ceiling: Unl
Heat Index: 38°   Visibility: 10mi
Dew Point: 26°   Wind: 6mph
Humidity: 62%   Direction: 320°NW
Pressure: 30.46"   Gusts: NA
Location:  37.08°N, 89.79°W
Report Text: KCGI 272053Z 32005KT 10SM SCT043 03/M03 A3046 RMK AO2 SLP315 T00331033 58012
Loading
Personal Weather Stations






























Interactive Weather Map New forecast layout! Learn more

10-Day Weather Forecast

Advertisements
Track Severe Weather on mobile